sensor_id;sensor_type;location;lat;lon;timestamp;P1;durP1;ratioP1;P2;durP2;ratioP2
57311;SDS011;43154;50.966;18.316;2023-05-27T09:23:45;10.50;;;2.40;;
57311;SDS011;43154;50.966;18.316;2023-05-27T09:26:11;10.80;;;2.30;;
57311;SDS011;43154;50.966;18.316;2023-05-27T09:28:38;10.40;;;2.60;;
57311;SDS011;43154;50.966;18.316;2023-05-27T09:31:05;9.50;;;2.50;;
57311;SDS011;43154;50.966;18.316;2023-05-27T09:33:32;10.60;;;2.30;;
57311;SDS011;43154;50.966;18.316;2023-05-27T09:36:00;9.80;;;2.50;;
57311;SDS011;43154;50.966;18.316;2023-05-27T09:38:30;11.40;;;2.40;;
57311;SDS011;43154;50.966;18.316;2023-05-27T09:40:59;8.30;;;2.30;;
57311;SDS011;43154;50.966;18.316;2023-05-27T09:43:25;9.90;;;2.70;;
57311;SDS011;43154;50.966;18.316;2023-05-27T09:45:52;9.90;;;2.20;;
57311;SDS011;43154;50.966;18.316;2023-05-27T09:48:18;10.80;;;2.30;;
57311;SDS011;43154;50.966;18.316;2023-05-27T09:50:48;10.30;;;2.20;;
57311;SDS011;43154;50.966;18.316;2023-05-27T09:53:16;12.70;;;2.50;;
57311;SDS011;43154;50.966;18.316;2023-05-27T09:55:42;10.10;;;2.30;;
57311;SDS011;43154;50.966;18.316;2023-05-27T09:58:08;9.60;;;2.40;;
57311;SDS011;43154;50.966;18.316;2023-05-27T10:00:35;10.10;;;2.30;;
57311;SDS011;43154;50.966;18.316;2023-05-27T10:03:02;8.70;;;2.50;;
57311;SDS011;43154;50.966;18.316;2023-05-27T10:05:28;11.60;;;2.60;;
57311;SDS011;43154;50.966;18.316;2023-05-27T10:07:55;10.90;;;2.50;;
57311;SDS011;43154;50.966;18.316;2023-05-27T10:10:21;9.80;;;2.70;;
57311;SDS011;43154;50.966;18.316;2023-05-27T10:12:48;10.20;;;2.40;;
57311;SDS011;43154;50.966;18.316;2023-05-27T10:15:23;15.20;;;2.80;;
57311;SDS011;43154;50.966;18.316;2023-05-27T10:17:53;9.40;;;2.60;;
57311;SDS011;43154;50.966;18.316;2023-05-27T10:20:28;8.30;;;2.10;;
57311;SDS011;43154;50.966;18.316;2023-05-27T10:22:57;9.70;;;2.70;;
57311;SDS011;43154;50.966;18.316;2023-05-27T10:25:37;10.80;;;2.50;;
57311;SDS011;43154;50.966;18.316;2023-05-27T10:28:04;9.80;;;2.50;;
57311;SDS011;43154;50.966;18.316;2023-05-27T10:30:30;11.50;;;2.40;;
57311;SDS011;43154;50.966;18.316;2023-05-27T10:33:11;9.20;;;2.30;;
57311;SDS011;43154;50.966;18.316;2023-05-27T10:35:41;31.40;;;3.50;;
57311;SDS011;43154;50.966;18.316;2023-05-27T10:38:16;11.70;;;2.50;;
57311;SDS011;43154;50.966;18.316;2023-05-27T10:40:46;9.30;;;2.30;;
57311;SDS011;43154;50.966;18.316;2023-05-27T10:43:19;8.50;;;2.30;;
57311;SDS011;43154;50.966;18.316;2023-05-27T10:45:45;9.70;;;2.20;;
57311;SDS011;43154;50.966;18.316;2023-05-27T10:48:30;9.20;;;2.50;;
57311;SDS011;43154;50.966;18.316;2023-05-27T10:50:57;13.40;;;2.70;;
57311;SDS011;43154;50.966;18.316;2023-05-27T10:53:25;10.00;;;2.50;;
57311;SDS011;43154;50.966;18.316;2023-05-27T10:55:51;12.10;;;2.40;;
57311;SDS011;43154;50.966;18.316;2023-05-27T10:58:17;10.00;;;2.40;;
57311;SDS011;43154;50.966;18.316;2023-05-27T11:00:44;8.80;;;2.50;;
57311;SDS011;43154;50.966;18.316;2023-05-27T11:05:46;7.20;;;1.90;;
57311;SDS011;43154;50.966;18.316;2023-05-27T11:08:12;8.20;;;2.20;;
57311;SDS011;43154;50.966;18.316;2023-05-27T11:10:41;8.70;;;2.10;;
57311;SDS011;43154;50.966;18.316;2023-05-27T11:13:07;11.70;;;2.40;;
57311;SDS011;43154;50.966;18.316;2023-05-27T11:15:33;10.30;;;2.40;;
57311;SDS011;43154;50.966;18.316;2023-05-27T11:18:00;8.70;;;2.40;;
57311;SDS011;43154;50.966;18.316;2023-05-27T11:20:37;10.30;;;2.40;;
57311;SDS011;43154;50.966;18.316;2023-05-27T11:23:03;10.90;;;2.40;;
57311;SDS011;43154;50.966;18.316;2023-05-27T11:25:29;9.00;;;2.40;;
57311;SDS011;43154;50.966;18.316;2023-05-27T11:28:12;8.90;;;2.30;;
57311;SDS011;43154;50.966;18.316;2023-05-27T11:30:39;10.80;;;2.30;;
57311;SDS011;43154;50.966;18.316;2023-05-27T11:33:05;8.70;;;2.20;;
57311;SDS011;43154;50.966;18.316;2023-05-27T11:35:31;10.00;;;2.10;;
57311;SDS011;43154;50.966;18.316;2023-05-27T11:37:58;9.80;;;2.50;;
57311;SDS011;43154;50.966;18.316;2023-05-27T11:40:24;9.50;;;2.50;;
57311;SDS011;43154;50.966;18.316;2023-05-27T11:42:50;7.50;;;2.00;;
57311;SDS011;43154;50.966;18.316;2023-05-27T11:45:19;9.00;;;2.30;;
57311;SDS011;43154;50.966;18.316;2023-05-27T11:47:46;8.00;;;2.20;;
57311;SDS011;43154;50.966;18.316;2023-05-27T11:50:16;8.40;;;2.30;;
57311;SDS011;43154;50.966;18.316;2023-05-27T11:52:54;8.30;;;2.30;;
57311;SDS011;43154;50.966;18.316;2023-05-27T11:55:21;9.30;;;2.30;;
57311;SDS011;43154;50.966;18.316;2023-05-27T11:57:48;9.50;;;2.30;;
57311;SDS011;43154;50.966;18.316;2023-05-27T12:00:14;10.00;;;2.60;;
57311;SDS011;43154;50.966;18.316;2023-05-27T12:02:41;13.50;;;2.40;;
57311;SDS011;43154;50.966;18.316;2023-05-27T12:05:08;10.80;;;2.40;;
57311;SDS011;43154;50.966;18.316;2023-05-27T12:07:35;9.40;;;2.20;;
57311;SDS011;43154;50.966;18.316;2023-05-27T12:10:05;11.40;;;2.50;;
57311;SDS011;43154;50.966;18.316;2023-05-27T12:12:34;9.10;;;2.20;;
57311;SDS011;43154;50.966;18.316;2023-05-27T12:15:00;10.10;;;2.50;;
57311;SDS011;43154;50.966;18.316;2023-05-27T12:17:26;9.80;;;2.40;;
57311;SDS011;43154;50.966;18.316;2023-05-27T12:19:52;11.10;;;2.40;;
57311;SDS011;43154;50.966;18.316;2023-05-27T12:22:17;9.60;;;2.30;;
57311;SDS011;43154;50.966;18.316;2023-05-27T12:24:43;11.20;;;2.80;;
57311;SDS011;43154;50.966;18.316;2023-05-27T12:27:09;9.20;;;2.70;;
57311;SDS011;43154;50.966;18.316;2023-05-27T12:29:34;8.10;;;2.40;;
57311;SDS011;43154;50.966;18.316;2023-05-27T12:32:00;7.40;;;2.20;;
57311;SDS011;43154;50.966;18.316;2023-05-27T12:34:26;10.00;;;2.50;;
57311;SDS011;43154;50.966;18.316;2023-05-27T12:36:52;9.80;;;2.40;;
57311;SDS011;43154;50.966;18.316;2023-05-27T12:39:18;16.60;;;2.80;;
57311;SDS011;43154;50.966;18.316;2023-05-27T12:41:45;10.50;;;2.50;;
57311;SDS011;43154;50.966;18.316;2023-05-27T12:44:10;9.70;;;2.30;;
57311;SDS011;43154;50.966;18.316;2023-05-27T12:46:36;9.80;;;2.30;;
57311;SDS011;43154;50.966;18.316;2023-05-27T12:49:02;8.40;;;2.30;;
57311;SDS011;43154;50.966;18.316;2023-05-27T12:51:27;9.20;;;2.40;;
57311;SDS011;43154;50.966;18.316;2023-05-27T12:53:53;9.40;;;2.60;;
57311;SDS011;43154;50.966;18.316;2023-05-27T12:56:19;9.30;;;2.50;;
57311;SDS011;43154;50.966;18.316;2023-05-27T12:58:45;11.10;;;2.80;;
57311;SDS011;43154;50.966;18.316;2023-05-27T13:01:10;9.70;;;2.60;;
57311;SDS011;43154;50.966;18.316;2023-05-27T13:03:36;8.90;;;2.30;;
57311;SDS011;43154;50.966;18.316;2023-05-27T13:06:02;9.90;;;2.50;;
57311;SDS011;43154;50.966;18.316;2023-05-27T13:08:28;8.30;;;2.30;;
57311;SDS011;43154;50.966;18.316;2023-05-27T13:10:54;10.00;;;2.50;;
57311;SDS011;43154;50.966;18.316;2023-05-27T13:13:19;8.90;;;2.50;;
57311;SDS011;43154;50.966;18.316;2023-05-27T13:15:45;10.90;;;2.60;;
57311;SDS011;43154;50.966;18.316;2023-05-27T13:18:12;10.80;;;2.60;;
57311;SDS011;43154;50.966;18.316;2023-05-27T13:20:38;13.20;;;2.70;;
57311;SDS011;43154;50.966;18.316;2023-05-27T13:23:04;8.40;;;2.10;;
57311;SDS011;43154;50.966;18.316;2023-05-27T13:25:31;9.90;;;2.50;;
57311;SDS011;43154;50.966;18.316;2023-05-27T13:27:57;7.80;;;2.40;;
57311;SDS011;43154;50.966;18.316;2023-05-27T13:30:23;10.00;;;2.60;;
57311;SDS011;43154;50.966;18.316;2023-05-27T13:32:49;9.90;;;2.30;;
57311;SDS011;43154;50.966;18.316;2023-05-27T13:35:14;19.70;;;3.10;;
57311;SDS011;43154;50.966;18.316;2023-05-27T13:37:40;7.80;;;2.30;;
57311;SDS011;43154;50.966;18.316;2023-05-27T13:40:07;9.20;;;2.40;;
57311;SDS011;43154;50.966;18.316;2023-05-27T13:42:33;83.10;;;6.50;;
57311;SDS011;43154;50.966;18.316;2023-05-27T13:44:59;10.60;;;2.40;;
57311;SDS011;43154;50.966;18.316;2023-05-27T13:47:25;11.50;;;2.70;;
57311;SDS011;43154;50.966;18.316;2023-05-27T13:49:51;8.50;;;2.50;;
57311;SDS011;43154;50.966;18.316;2023-05-27T13:52:16;7.90;;;2.50;;
57311;SDS011;43154;50.966;18.316;2023-05-27T13:54:42;9.60;;;2.60;;
57311;SDS011;43154;50.966;18.316;2023-05-27T13:57:08;9.50;;;2.60;;
57311;SDS011;43154;50.966;18.316;2023-05-27T13:59:34;10.60;;;2.40;;
57311;SDS011;43154;50.966;18.316;2023-05-27T14:01:59;9.20;;;2.20;;
57311;SDS011;43154;50.966;18.316;2023-05-27T14:04:31;12.10;;;2.70;;
57311;SDS011;43154;50.966;18.316;2023-05-27T14:06:57;8.70;;;2.50;;
57311;SDS011;43154;50.966;18.316;2023-05-27T14:09:23;9.60;;;2.50;;
57311;SDS011;43154;50.966;18.316;2023-05-27T14:11:49;9.20;;;2.60;;
57311;SDS011;43154;50.966;18.316;2023-05-27T14:14:14;22.90;;;3.10;;
57311;SDS011;43154;50.966;18.316;2023-05-27T14:16:40;10.40;;;2.80;;
57311;SDS011;43154;50.966;18.316;2023-05-27T14:19:05;8.30;;;2.40;;
57311;SDS011;43154;50.966;18.316;2023-05-27T14:21:31;9.90;;;2.50;;
57311;SDS011;43154;50.966;18.316;2023-05-27T14:23:58;8.10;;;2.30;;
57311;SDS011;43154;50.966;18.316;2023-05-27T14:26:25;9.60;;;2.50;;
57311;SDS011;43154;50.966;18.316;2023-05-27T14:28:51;9.10;;;2.70;;
57311;SDS011;43154;50.966;18.316;2023-05-27T14:31:17;9.10;;;2.30;;
57311;SDS011;43154;50.966;18.316;2023-05-27T14:33:42;9.10;;;2.40;;
57311;SDS011;43154;50.966;18.316;2023-05-27T14:36:09;8.60;;;2.50;;
57311;SDS011;43154;50.966;18.316;2023-05-27T14:38:35;8.90;;;2.40;;
57311;SDS011;43154;50.966;18.316;2023-05-27T14:41:00;8.90;;;2.80;;
57311;SDS011;43154;50.966;18.316;2023-05-27T14:43:26;8.50;;;2.50;;
57311;SDS011;43154;50.966;18.316;2023-05-27T14:45:52;9.20;;;2.60;;
57311;SDS011;43154;50.966;18.316;2023-05-27T14:48:18;8.60;;;2.40;;
57311;SDS011;43154;50.966;18.316;2023-05-27T14:50:43;10.00;;;2.30;;
57311;SDS011;43154;50.966;18.316;2023-05-27T14:53:09;9.30;;;2.30;;
57311;SDS011;43154;50.966;18.316;2023-05-27T14:55:35;9.20;;;2.30;;
57311;SDS011;43154;50.966;18.316;2023-05-27T14:58:01;8.90;;;2.40;;
57311;SDS011;43154;50.966;18.316;2023-05-27T15:00:29;16.70;;;2.60;;
57311;SDS011;43154;50.966;18.316;2023-05-27T15:02:55;9.30;;;2.60;;
57311;SDS011;43154;50.966;18.316;2023-05-27T15:05:21;9.00;;;2.40;;
57311;SDS011;43154;50.966;18.316;2023-05-27T15:07:46;9.60;;;2.40;;
57311;SDS011;43154;50.966;18.316;2023-05-27T15:10:12;10.30;;;2.60;;
57311;SDS011;43154;50.966;18.316;2023-05-27T15:12:45;9.70;;;2.50;;
57311;SDS011;43154;50.966;18.316;2023-05-27T15:15:12;11.00;;;2.70;;
57311;SDS011;43154;50.966;18.316;2023-05-27T15:17:40;11.10;;;2.60;;
57311;SDS011;43154;50.966;18.316;2023-05-27T15:20:12;11.80;;;2.50;;
57311;SDS011;43154;50.966;18.316;2023-05-27T15:22:39;9.40;;;2.50;;
57311;SDS011;43154;50.966;18.316;2023-05-27T15:25:05;8.40;;;2.20;;
57311;SDS011;43154;50.966;18.316;2023-05-27T15:27:32;10.30;;;2.50;;
57311;SDS011;43154;50.966;18.316;2023-05-27T15:29:58;14.10;;;2.60;;
57311;SDS011;43154;50.966;18.316;2023-05-27T15:32:23;10.10;;;2.70;;
57311;SDS011;43154;50.966;18.316;2023-05-27T15:34:49;13.80;;;2.80;;
57311;SDS011;43154;50.966;18.316;2023-05-27T15:37:16;8.30;;;2.80;;
57311;SDS011;43154;50.966;18.316;2023-05-27T15:39:43;9.10;;;2.80;;
57311;SDS011;43154;50.966;18.316;2023-05-27T15:42:08;11.60;;;3.00;;
57311;SDS011;43154;50.966;18.316;2023-05-27T15:44:34;9.70;;;2.60;;
57311;SDS011;43154;50.966;18.316;2023-05-27T15:46:59;8.40;;;2.40;;
57311;SDS011;43154;50.966;18.316;2023-05-27T15:49:25;13.90;;;2.70;;
57311;SDS011;43154;50.966;18.316;2023-05-27T15:51:51;9.10;;;2.20;;
57311;SDS011;43154;50.966;18.316;2023-05-27T15:54:17;7.80;;;2.40;;
57311;SDS011;43154;50.966;18.316;2023-05-27T15:56:43;8.50;;;2.30;;
57311;SDS011;43154;50.966;18.316;2023-05-27T15:59:09;8.10;;;2.60;;
57311;SDS011;43154;50.966;18.316;2023-05-27T16:01:36;9.00;;;2.60;;
57311;SDS011;43154;50.966;18.316;2023-05-27T16:04:02;8.40;;;2.50;;
57311;SDS011;43154;50.966;18.316;2023-05-27T16:06:31;10.40;;;2.40;;
57311;SDS011;43154;50.966;18.316;2023-05-27T16:08:57;10.80;;;2.90;;
57311;SDS011;43154;50.966;18.316;2023-05-27T16:11:22;11.20;;;2.90;;
57311;SDS011;43154;50.966;18.316;2023-05-27T16:13:49;12.80;;;3.10;;
57311;SDS011;43154;50.966;18.316;2023-05-27T16:16:15;11.40;;;3.20;;
57311;SDS011;43154;50.966;18.316;2023-05-27T16:18:41;9.80;;;2.50;;
57311;SDS011;43154;50.966;18.316;2023-05-27T16:21:07;7.80;;;2.40;;
57311;SDS011;43154;50.966;18.316;2023-05-27T16:23:32;11.20;;;2.70;;
57311;SDS011;43154;50.966;18.316;2023-05-27T16:25:58;9.80;;;2.50;;
57311;SDS011;43154;50.966;18.316;2023-05-27T16:28:24;10.20;;;2.40;;
57311;SDS011;43154;50.966;18.316;2023-05-27T16:30:50;11.40;;;2.50;;
57311;SDS011;43154;50.966;18.316;2023-05-27T16:33:15;7.90;;;2.30;;
57311;SDS011;43154;50.966;18.316;2023-05-27T16:35:41;10.90;;;2.50;;
57311;SDS011;43154;50.966;18.316;2023-05-27T16:38:07;12.10;;;2.80;;
57311;SDS011;43154;50.966;18.316;2023-05-27T16:40:33;14.30;;;3.00;;
57311;SDS011;43154;50.966;18.316;2023-05-27T16:42:58;9.20;;;2.80;;
57311;SDS011;43154;50.966;18.316;2023-05-27T16:45:24;9.10;;;2.90;;
57311;SDS011;43154;50.966;18.316;2023-05-27T16:47:50;10.80;;;2.90;;
57311;SDS011;43154;50.966;18.316;2023-05-27T16:50:16;10.10;;;3.10;;
57311;SDS011;43154;50.966;18.316;2023-05-27T16:52:41;11.30;;;3.00;;
57311;SDS011;43154;50.966;18.316;2023-05-27T16:55:07;10.60;;;2.80;;
57311;SDS011;43154;50.966;18.316;2023-05-27T16:57:34;11.60;;;3.00;;
57311;SDS011;43154;50.966;18.316;2023-05-27T17:00:00;10.30;;;3.10;;
57311;SDS011;43154;50.966;18.316;2023-05-27T17:02:27;12.10;;;2.90;;
57311;SDS011;43154;50.966;18.316;2023-05-27T17:04:53;12.20;;;3.10;;
57311;SDS011;43154;50.966;18.316;2023-05-27T17:07:19;11.10;;;3.00;;
57311;SDS011;43154;50.966;18.316;2023-05-27T17:09:45;11.90;;;2.70;;
57311;SDS011;43154;50.966;18.316;2023-05-27T17:12:12;9.80;;;2.90;;
57311;SDS011;43154;50.966;18.316;2023-05-27T17:14:37;10.70;;;2.80;;
57311;SDS011;43154;50.966;18.316;2023-05-27T17:17:04;12.40;;;3.40;;
57311;SDS011;43154;50.966;18.316;2023-05-27T17:19:31;11.00;;;3.40;;
57311;SDS011;43154;50.966;18.316;2023-05-27T17:21:57;12.30;;;3.90;;
57311;SDS011;43154;50.966;18.316;2023-05-27T17:24:23;10.70;;;3.10;;
57311;SDS011;43154;50.966;18.316;2023-05-27T17:26:49;12.00;;;3.20;;
57311;SDS011;43154;50.966;18.316;2023-05-27T17:29:15;11.80;;;3.50;;
57311;SDS011;43154;50.966;18.316;2023-05-27T17:31:40;11.80;;;3.20;;
57311;SDS011;43154;50.966;18.316;2023-05-27T17:34:06;11.00;;;3.00;;
57311;SDS011;43154;50.966;18.316;2023-05-27T17:36:31;11.00;;;3.30;;
57311;SDS011;43154;50.966;18.316;2023-05-27T17:38:58;9.20;;;3.10;;
57311;SDS011;43154;50.966;18.316;2023-05-27T17:41:23;9.60;;;3.00;;
57311;SDS011;43154;50.966;18.316;2023-05-27T17:43:50;12.40;;;3.20;;
57311;SDS011;43154;50.966;18.316;2023-05-27T17:46:16;11.00;;;3.00;;
57311;SDS011;43154;50.966;18.316;2023-05-27T17:48:42;19.00;;;3.90;;
57311;SDS011;43154;50.966;18.316;2023-05-27T17:51:07;11.40;;;3.70;;
57311;SDS011;43154;50.966;18.316;2023-05-27T17:53:33;12.50;;;3.90;;
57311;SDS011;43154;50.966;18.316;2023-05-27T17:56:04;11.10;;;4.00;;
57311;SDS011;43154;50.966;18.316;2023-05-27T17:58:30;13.50;;;4.00;;
57311;SDS011;43154;50.966;18.316;2023-05-27T18:00:56;13.10;;;4.50;;
57311;SDS011;43154;50.966;18.316;2023-05-27T18:03:27;13.00;;;4.30;;
57311;SDS011;43154;50.966;18.316;2023-05-27T18:05:54;12.40;;;4.00;;
57311;SDS011;43154;50.966;18.316;2023-05-27T18:08:20;16.50;;;4.90;;
57311;SDS011;43154;50.966;18.316;2023-05-27T18:10:46;18.40;;;5.60;;
57311;SDS011;43154;50.966;18.316;2023-05-27T18:13:11;19.80;;;5.00;;
57311;SDS011;43154;50.966;18.316;2023-05-27T18:32:47;12.80;;;4.40;;
57311;SDS011;43154;50.966;18.316;2023-05-27T18:35:14;14.30;;;5.30;;
57311;SDS011;43154;50.966;18.316;2023-05-27T18:37:40;13.10;;;5.50;;
57311;SDS011;43154;50.966;18.316;2023-05-27T18:40:06;13.80;;;4.60;;
57311;SDS011;43154;50.966;18.316;2023-05-27T18:42:33;12.20;;;4.50;;
57311;SDS011;43154;50.966;18.316;2023-05-27T18:44:58;13.90;;;4.50;;
57311;SDS011;43154;50.966;18.316;2023-05-27T18:47:24;17.40;;;5.30;;
57311;SDS011;43154;50.966;18.316;2023-05-27T18:49:50;17.90;;;4.80;;
57311;SDS011;43154;50.966;18.316;2023-05-27T18:52:16;27.30;;;4.70;;
57311;SDS011;43154;50.966;18.316;2023-05-27T18:54:43;18.70;;;4.60;;
57311;SDS011;43154;50.966;18.316;2023-05-27T19:26:16;11.70;;;4.10;;
57311;SDS011;43154;50.966;18.316;2023-05-27T19:28:42;12.10;;;3.30;;
57311;SDS011;43154;50.966;18.316;2023-05-27T19:31:08;10.90;;;3.40;;
57311;SDS011;43154;50.966;18.316;2023-05-27T19:33:34;11.20;;;3.10;;
57311;SDS011;43154;50.966;18.316;2023-05-27T19:36:00;12.50;;;3.50;;
57311;SDS011;43154;50.966;18.316;2023-05-27T19:38:27;17.30;;;3.70;;
57311;SDS011;43154;50.966;18.316;2023-05-27T19:40:53;11.60;;;3.40;;
57311;SDS011;43154;50.966;18.316;2023-05-27T19:43:19;11.50;;;3.60;;
57311;SDS011;43154;50.966;18.316;2023-05-27T19:45:46;13.40;;;3.50;;
57311;SDS011;43154;50.966;18.316;2023-05-27T19:48:12;11.30;;;3.30;;
57311;SDS011;43154;50.966;18.316;2023-05-27T19:50:39;15.00;;;3.50;;
57311;SDS011;43154;50.966;18.316;2023-05-27T19:53:06;12.00;;;3.60;;
57311;SDS011;43154;50.966;18.316;2023-05-27T19:55:32;11.50;;;3.40;;
57311;SDS011;43154;50.966;18.316;2023-05-27T19:57:58;10.70;;;3.60;;
57311;SDS011;43154;50.966;18.316;2023-05-27T20:00:24;11.40;;;3.60;;
57311;SDS011;43154;50.966;18.316;2023-05-27T20:02:50;14.60;;;4.00;;
57311;SDS011;43154;50.966;18.316;2023-05-27T20:05:16;13.10;;;4.10;;
57311;SDS011;43154;50.966;18.316;2023-05-27T20:07:42;14.50;;;3.90;;
57311;SDS011;43154;50.966;18.316;2023-05-27T20:10:08;15.10;;;3.80;;
57311;SDS011;43154;50.966;18.316;2023-05-27T20:12:41;13.20;;;4.00;;
57311;SDS011;43154;50.966;18.316;2023-05-27T20:15:09;12.40;;;3.40;;
57311;SDS011;43154;50.966;18.316;2023-05-27T20:17:36;11.50;;;3.70;;
57311;SDS011;43154;50.966;18.316;2023-05-27T20:20:05;17.50;;;4.40;;
57311;SDS011;43154;50.966;18.316;2023-05-27T20:22:33;18.60;;;4.80;;
57311;SDS011;43154;50.966;18.316;2023-05-27T20:25:00;16.80;;;5.40;;
57311;SDS011;43154;50.966;18.316;2023-05-27T20:27:26;13.00;;;4.80;;
57311;SDS011;43154;50.966;18.316;2023-05-27T20:29:52;12.60;;;4.00;;
57311;SDS011;43154;50.966;18.316;2023-05-27T20:32:17;14.90;;;4.20;;
57311;SDS011;43154;50.966;18.316;2023-05-27T20:34:43;12.50;;;4.00;;
57311;SDS011;43154;50.966;18.316;2023-05-27T20:37:10;12.00;;;3.80;;
57311;SDS011;43154;50.966;18.316;2023-05-27T20:39:35;12.00;;;4.10;;
57311;SDS011;43154;50.966;18.316;2023-05-27T20:42:02;14.60;;;4.30;;
57311;SDS011;43154;50.966;18.316;2023-05-27T20:44:28;31.80;;;5.00;;
57311;SDS011;43154;50.966;18.316;2023-05-27T20:46:54;18.10;;;4.10;;
57311;SDS011;43154;50.966;18.316;2023-05-27T20:49:19;11.60;;;3.90;;
57311;SDS011;43154;50.966;18.316;2023-05-27T20:51:45;15.00;;;3.60;;
57311;SDS011;43154;50.966;18.316;2023-05-27T20:54:10;16.20;;;4.00;;
57311;SDS011;43154;50.966;18.316;2023-05-27T20:56:36;13.80;;;4.10;;
57311;SDS011;43154;50.966;18.316;2023-05-27T20:59:02;14.50;;;3.90;;
57311;SDS011;43154;50.966;18.316;2023-05-27T21:01:27;18.50;;;4.00;;
57311;SDS011;43154;50.966;18.316;2023-05-27T21:03:57;13.90;;;4.00;;
57311;SDS011;43154;50.966;18.316;2023-05-27T21:06:26;14.60;;;4.50;;
57311;SDS011;43154;50.966;18.316;2023-05-27T21:08:52;14.70;;;4.40;;
57311;SDS011;43154;50.966;18.316;2023-05-27T21:11:18;14.20;;;4.30;;
57311;SDS011;43154;50.966;18.316;2023-05-27T21:13:44;13.20;;;4.10;;
57311;SDS011;43154;50.966;18.316;2023-05-27T21:16:09;17.70;;;4.50;;
57311;SDS011;43154;50.966;18.316;2023-05-27T21:18:35;18.00;;;5.60;;
57311;SDS011;43154;50.966;18.316;2023-05-27T21:21:01;21.80;;;5.60;;
57311;SDS011;43154;50.966;18.316;2023-05-27T21:23:27;19.10;;;5.70;;
57311;SDS011;43154;50.966;18.316;2023-05-27T21:25:52;18.60;;;6.70;;
57311;SDS011;43154;50.966;18.316;2023-05-27T21:28:18;18.10;;;6.10;;
57311;SDS011;43154;50.966;18.316;2023-05-27T21:30:44;19.40;;;6.40;;
57311;SDS011;43154;50.966;18.316;2023-05-27T21:33:11;19.10;;;6.00;;
57311;SDS011;43154;50.966;18.316;2023-05-27T21:35:37;18.30;;;6.80;;
57311;SDS011;43154;50.966;18.316;2023-05-27T21:38:04;16.30;;;6.10;;
57311;SDS011;43154;50.966;18.316;2023-05-27T21:40:31;16.20;;;5.90;;
57311;SDS011;43154;50.966;18.316;2023-05-27T21:42:58;18.30;;;6.20;;
57311;SDS011;43154;50.966;18.316;2023-05-27T21:45:23;16.20;;;5.70;;
57311;SDS011;43154;50.966;18.316;2023-05-27T21:47:49;17.30;;;5.80;;
57311;SDS011;43154;50.966;18.316;2023-05-27T22:23:56;14.10;;;4.60;;
57311;SDS011;43154;50.966;18.316;2023-05-27T22:26:48;13.50;;;4.50;;
57311;SDS011;43154;50.966;18.316;2023-05-27T22:29:26;14.20;;;4.30;;
57311;SDS011;43154;50.966;18.316;2023-05-27T22:32:31;14.40;;;4.60;;
57311;SDS011;43154;50.966;18.316;2023-05-27T22:35:20;13.60;;;4.40;;
57311;SDS011;43154;50.966;18.316;2023-05-27T22:37:53;13.50;;;4.50;;
57311;SDS011;43154;50.966;18.316;2023-05-27T22:40:27;12.70;;;4.30;;
57311;SDS011;43154;50.966;18.316;2023-05-27T22:43:08;13.70;;;4.80;;
57311;SDS011;43154;50.966;18.316;2023-05-27T22:45:46;13.80;;;4.60;;
57311;SDS011;43154;50.966;18.316;2023-05-27T22:48:45;13.70;;;4.40;;
57311;SDS011;43154;50.966;18.316;2023-05-27T22:51:36;12.30;;;4.50;;
57311;SDS011;43154;50.966;18.316;2023-05-27T22:54:25;12.30;;;4.60;;
57311;SDS011;43154;50.966;18.316;2023-05-27T23:00:23;11.10;;;4.30;;
57311;SDS011;43154;50.966;18.316;2023-05-27T23:03:21;14.30;;;4.60;;
57311;SDS011;43154;50.966;18.316;2023-05-27T23:06:36;15.70;;;4.40;;
57311;SDS011;43154;50.966;18.316;2023-05-27T23:09:14;15.40;;;4.70;;
57311;SDS011;43154;50.966;18.316;2023-05-27T23:11:54;19.30;;;4.70;;
57311;SDS011;43154;50.966;18.316;2023-05-27T23:14:26;16.90;;;4.70;;
57311;SDS011;43154;50.966;18.316;2023-05-27T23:17:05;12.20;;;4.10;;
57311;SDS011;43154;50.966;18.316;2023-05-27T23:19:51;13.60;;;4.60;;
57311;SDS011;43154;50.966;18.316;2023-05-27T23:22:23;12.20;;;4.50;;
57311;SDS011;43154;50.966;18.316;2023-05-27T23:25:09;12.80;;;4.20;;
57311;SDS011;43154;50.966;18.316;2023-05-27T23:28:09;12.70;;;4.40;;
57311;SDS011;43154;50.966;18.316;2023-05-27T23:30:44;13.30;;;4.40;;
57311;SDS011;43154;50.966;18.316;2023-05-27T23:33:45;14.70;;;4.80;;
57311;SDS011;43154;50.966;18.316;2023-05-27T23:36:15;13.90;;;4.60;;
57311;SDS011;43154;50.966;18.316;2023-05-27T23:38:53;12.50;;;4.20;;
57311;SDS011;43154;50.966;18.316;2023-05-27T23:41:38;12.40;;;4.40;;
57311;SDS011;43154;50.966;18.316;2023-05-27T23:44:34;13.80;;;4.40;;
57311;SDS011;43154;50.966;18.316;2023-05-27T23:47:21;15.00;;;4.40;;
57311;SDS011;43154;50.966;18.316;2023-05-27T23:50:00;13.00;;;4.30;;
57311;SDS011;43154;50.966;18.316;2023-05-27T23:55:22;16.50;;;4.20;;
57311;SDS011;43154;50.966;18.316;2023-05-27T23:58:08;12.50;;;4.10;;
